Nearby METAR Reports

 

KC09 - Morris-Washburn, Illinois, USA
Distance from station: NW 9mi, 14km
Updated: Sun, 23-Jul-2017 5:35am CDT
Mostly cloudy
Mostly cloudy
 Wind from W
Wind: W 3 mph , 6 km/h
Temperature: 75°F , 24°C
Dew Point: 73°F , 23°C
Humidity: 94%
Barometer: 29.80 inHg , 1009.1 hPa
Clouds: Mostly cloudy
Visibility: 7 miles , 11 km
Cloud details: Mostly cloudy 3300 ft
2017/07/23 10:35 KC09 231035Z AUTO 26003KT 7SM BKN033 24/23 A2980 RMK AO2 T02360230
KJOT - Joliet, Illinois, USA
Distance from station: NNE 13mi, 22km
Updated: Sun, 23-Jul-2017 5:35am CDT
Overcast
Overcast
 Wind from N
Wind: N 5 mph , 7 km/h
Temperature: 75°F , 24°C
Dew Point: 73°F , 23°C
Humidity: 94%
Barometer: 29.81 inHg , 1009.5 hPa
Clouds: Overcast
Visibility: 10 miles , 16 km
Cloud details: Partly cloudy 1300 ft
Mostly cloudy 3800 ft
Overcast 5000 ft
2017/07/23 10:35 KJOT 231035Z AUTO 35004KT 10SM SCT013 BKN038 OVC050 24/23 A2981 RMK AO2 LTG DSNT N AND NE T02410230
 
KLOT - Romeoville/Chi, Illinois, USA
Distance from station: NNE 21mi, 33km
Updated: Sun, 23-Jul-2017 5:35am CDT
Light thunderstorm, Rain, Overcast
Light thunderstorm, Rain, Overcast
 Wind from SW
Wind: SW 7 mph , 11 km/h
Temperature: 72°F , 22°C
Dew Point: 70°F , 21°C
Humidity: 94%
Barometer: 29.81 inHg , 1009.5 hPa
Summary: Light thunderstorm, Rain
Clouds: Overcast
Visibility: 2 1/2 miles , 2 km
Cloud details: Partly cloudy 3300 ft
Mostly cloudy 5000 ft
Overcast 11000 ft
2017/07/23 10:35 KLOT 231035Z AUTO 23006KT 2 1/2SM -TSRA SCT033 BKN050 OVC110 22/21 A2981 RMK AO2 VIS 1 1/2V4 LTG DSNT N THRU SE T02230208
KIKK - Kankakee, Illinois, USA
Distance from station: SE 30mi, 48km
Updated: Sun, 23-Jul-2017 5:35am CDT
Overcast
Overcast
 Wind from W
Wind: W 3 mph , 6 km/h
Temperature: 73°F , 23°C
Dew Point: 73°F , 23°C
Humidity: 100%
Barometer: 29.80 inHg , 1009.1 hPa
Clouds: Overcast
Visibility: 10 miles , 16 km
Cloud details: Partly cloudy 2300 ft
Mostly cloudy 3000 ft
Overcast 4200 ft
2017/07/23 10:35 KIKK 231035Z AUTO 28003KT 10SM SCT023 BKN030 OVC042 23/23 A2980 RMK AO2 P0001 T02330229
 
KARR - Chicago/Aurora, Illinois, USA
Distance from station: NNW 31mi, 50km
Updated: Sun, 23-Jul-2017 4:52am CDT
Mist, Overcast
Mist, Overcast
 Wind from SE
Wind: SE 3 mph , 6 km/h
Temperature: 73°F , 23°C
Dew Point: 73°F , 23°C
Humidity: 100%
Barometer: 29.80 inHg , 1009.1 hPa
Summary: Mist
Clouds: Overcast
Visibility: 5 miles , 8 km
Cloud details: Few Clouds 1400 ft
Mostly cloudy 5000 ft
Overcast 6500 ft
2017/07/23 09:52 KARR 230952Z AUTO 14003KT 5SM BR FEW014 BKN050 OVC065 23/23 A2980 RMK AO2 RAB09E41 SLP085 P0007 T02330228
KPNT - Pontiac, Illinois, USA
Distance from station: SSW 34mi, 54km
Updated: Sun, 23-Jul-2017 5:35am CDT
Partly cloudy
Partly cloudy
 Wind from W
Wind: W 5 mph , 7 km/h
Temperature: 75°F , 24°C
Dew Point: 75°F , 24°C
Humidity: 100%
Barometer: 29.83 inHg , 1010.2 hPa
Clouds: Partly cloudy
Visibility: 7 miles , 11 km
Cloud details: Partly cloudy 5000 ft
2017/07/23 10:35 KPNT 231035Z AUTO 28004KT 7SM SCT050 24/24 A2983 RMK AO2 T02400237
 
KDPA - Chicago/Dupage, Illinois, USA
Distance from station: N 40mi, 64km
Updated: Sun, 23-Jul-2017 4:52am CDT
Mist, Clear
Mist, Clear
 Wind from calm
Wind: Calm
Temperature: 70°F , 21°C
Dew Point: 70°F , 21°C
Humidity: 100%
Barometer: 29.79 inHg , 1008.8 hPa
Summary: Mist
Clouds: Clear
Visibility: 4 miles , 6 km
2017/07/23 09:52 KDPA 230952Z 00000KT 4SM BR CLR 21/21 A2979 RMK AO2 SLP082 T02110211
KIGQ - Chicago/Lansing, Illinois, USA
Distance from station: ENE 42mi, 67km
Updated: Sun, 23-Jul-2017 5:35am CDT
Mostly cloudy
Mostly cloudy
 Wind from SW
Wind: SW 3 mph , 6 km/h
Temperature: 72°F , 22°C
Dew Point: 68°F , 20°C
Humidity: 88%
Barometer: 29.81 inHg , 1009.5 hPa
Clouds: Mostly cloudy
Visibility: 10 miles , 16 km
Cloud details: Partly cloudy 4500 ft
Mostly cloudy 5500 ft
Mostly cloudy 7000 ft
2017/07/23 10:35 KIGQ 231035Z AUTO 23003KT 10SM SCT045 BKN055 BKN070 22/20 A2981 RMK AO2 T02220204
 
KMDW - Chicago, Illinois, USA
Distance from station: NE 42mi, 67km
Updated: Sun, 23-Jul-2017 4:53am CDT
Partly cloudy
Partly cloudy
 Wind from SSW
Wind: SSW 5 mph , 7 km/h
Temperature: 73°F , 23°C
Dew Point: 70°F , 21°C
Humidity: 89%
Barometer: 29.78 inHg , 1008.5 hPa
Clouds: Partly cloudy
Visibility: 10 miles , 16 km
Cloud details: Few Clouds 2700 ft
Partly cloudy 25000 ft
2017/07/23 09:53 KMDW 230953Z 21004KT 10SM FEW027 SCT250 23/21 A2978 RMK AO2 SLP073 T02330211 $
KVYS - Peru, Illinois, USA
Distance from station: W 44mi, 71km
Updated: Sun, 23-Jul-2017 5:35am CDT
Mostly cloudy
Mostly cloudy
 Wind from W
Wind: W 6 mph , 9 km/h
Temperature: 73°F , 23°C
Dew Point: 72°F , 22°C
Humidity: 94%
Barometer: 29.82 inHg , 1009.8 hPa
Clouds: Mostly cloudy
Visibility: 7 miles , 11 km
Cloud details: Partly cloudy 500 ft
Partly cloudy 2100 ft
Mostly cloudy 3200 ft
2017/07/23 10:35 KVYS 231035Z AUTO 28005KT 7SM SCT005 SCT021 BKN032 23/22 A2982 RMK AO2 T02280220
 
KDKB - De Kalb, Illinois, USA
Distance from station: NNW 46mi, 74km
Updated: Sun, 23-Jul-2017 5:35am CDT
Mist, Partly cloudy
Mist, Partly cloudy
 Wind from W
Wind: W 8 mph , 13 km/h
Temperature: 73°F , 23°C
Dew Point: 72°F , 22°C
Humidity: 94%
Barometer: 29.82 inHg , 1009.8 hPa
Summary: Mist
Clouds: Partly cloudy
Visibility: 5 miles , 8 km
Cloud details: Partly cloudy 3300 ft
2017/07/23 10:35 KDKB 231035Z AUTO 28007KT 5SM BR SCT033 23/22 A2982 RMK AO2 T02280224
KORD - Chicago O'hare, Illinois, USA
Distance from station: NNE 48mi, 78km
Updated: Sun, 23-Jul-2017 4:51am CDT
Few Clouds
Few Clouds
 Wind from calm
Wind: Calm
Temperature: 72°F , 22°C
Dew Point: 68°F , 20°C
Humidity: 88%
Barometer: 29.78 inHg , 1008.5 hPa
Clouds: Few Clouds
Visibility: 10 miles , 16 km
Cloud details: Few Clouds 3000 ft
Few Clouds 25000 ft
2017/07/23 09:51 KORD 230951Z 00000KT 10SM FEW030 FEW250 22/20 A2978 RMK AO2 SLP078 T02170200
 
KGYY - Gary Regional, Indiana, USA
Distance from station: ENE 49mi, 80km
Updated: Sun, 23-Jul-2017 4:45am CDT
Partly cloudy
Partly cloudy
 Wind from calm
Wind: Calm
Temperature: 72°F , 22°C
Dew Point: 70°F , 21°C
Humidity: 94%
Barometer: 29.79 inHg , 1008.8 hPa
Clouds: Partly cloudy
Visibility: 10 miles , 16 km
Cloud details: Partly cloudy 4400 ft
2017/07/23 09:45 KGYY 230945Z 00000KT 10SM SCT044 22/21 A2979